createdAt,value
2019-03-28T00:03:06.896Z,101536.73
2019-03-28T00:08:12.501Z,101536.31
2019-03-28T00:13:15.845Z,101534.98
2019-03-28T00:18:19.407Z,101535.02
2019-03-28T00:23:33.838Z,101531.00
2019-03-28T00:28:37.436Z,101534.13
2019-03-28T00:33:40.999Z,101524.34
2019-03-28T00:38:44.600Z,101531.83
2019-03-28T00:43:48.156Z,101533.61
2019-03-28T00:48:51.740Z,101527.33
2019-03-28T00:53:56.102Z,101526.73
2019-03-28T00:58:59.858Z,101530.16
2019-03-28T01:04:03.545Z,101521.80
2019-03-28T01:09:07.705Z,101521.49
2019-03-28T01:14:11.308Z,101516.78
2019-03-28T01:19:14.863Z,101512.36
2019-03-28T01:24:18.468Z,101508.34
2019-03-28T01:29:22.044Z,101514.12
2019-03-28T01:34:25.664Z,101510.58
2019-03-28T01:39:29.235Z,101507.02
2019-03-28T01:44:32.807Z,101504.81
2019-03-28T01:49:36.401Z,101499.92
2019-03-28T01:54:39.953Z,101505.70
2019-03-28T01:59:43.527Z,101497.70
2019-03-28T02:04:47.137Z,101499.48
2019-03-28T02:09:50.697Z,101483.48
2019-03-28T02:14:54.272Z,101487.45
2019-03-28T02:19:57.821Z,101489.58
2019-03-28T02:25:01.385Z,101487.33
2019-03-28T02:30:07.531Z,101491.12
2019-03-28T02:35:11.084Z,101485.41
2019-03-28T02:40:14.728Z,101484.61
2019-03-28T02:45:18.256Z,101489.22
2019-03-28T02:50:21.835Z,101483.94
2019-03-28T02:55:25.391Z,101478.58
2019-03-28T03:00:28.952Z,101480.33
2019-03-28T03:05:32.537Z,101481.67
2019-03-28T03:10:36.086Z,101488.31
2019-03-28T03:15:39.667Z,101489.66
2019-03-28T03:20:43.709Z,101490.56
2019-03-28T03:25:48.085Z,101490.13
2019-03-28T03:30:51.635Z,101491.02
2019-03-28T03:35:55.205Z,101493.28
2019-03-28T03:40:58.774Z,101494.59
2019-03-28T03:46:02.374Z,101506.14
2019-03-28T03:51:05.929Z,101505.13
2019-03-28T03:56:09.542Z,101505.05
2019-03-28T04:01:13.091Z,101510.12
2019-03-28T04:06:16.958Z,101499.14
2019-03-28T04:11:20.646Z,101508.66
2019-03-28T04:16:24.515Z,101508.52
2019-03-28T04:21:28.758Z,101503.08
2019-03-28T04:26:32.880Z,101500.25
2019-03-28T04:31:36.679Z,101508.92
2019-03-28T04:36:40.937Z,101513.79
2019-03-28T04:41:45.318Z,101517.63
2019-03-28T04:46:49.388Z,101513.48
2019-03-28T04:51:53.462Z,101521.80
2019-03-28T04:56:57.190Z,101522.13
2019-03-28T05:02:03.481Z,101521.30
2019-03-28T05:07:06.176Z,101521.66
2019-03-28T05:12:09.797Z,101515.34
2019-03-28T05:17:13.893Z,101513.93
2019-03-28T05:22:18.056Z,101520.91
2019-03-28T05:27:21.676Z,101520.91
2019-03-28T05:32:25.292Z,101524.35
2019-03-28T05:37:28.922Z,101529.40
2019-03-28T05:42:32.529Z,101523.38
2019-03-28T05:47:36.255Z,101529.00
2019-03-28T05:52:39.873Z,101530.45
2019-03-28T05:57:43.495Z,101530.99
2019-03-28T06:02:47.116Z,101534.13
2019-03-28T06:07:50.729Z,101542.56
2019-03-28T06:12:54.351Z,101544.77
2019-03-28T06:17:57.935Z,101552.09
2019-03-28T06:23:01.493Z,101556.28
2019-03-28T06:28:05.316Z,101555.90
2019-03-28T06:33:08.929Z,101557.70
2019-03-28T06:38:12.911Z,101555.90
2019-03-28T06:43:16.583Z,101560.78
2019-03-28T06:48:20.156Z,101556.32
2019-03-28T06:53:23.681Z,101564.22
2019-03-28T06:58:27.435Z,101565.93
2019-03-28T07:03:31.060Z,101563.27
2019-03-28T07:08:34.681Z,101562.00
2019-03-28T07:13:38.298Z,101565.60
2019-03-28T07:18:41.847Z,101562.11
2019-03-28T07:23:45.430Z,101567.91
2019-03-28T07:28:48.957Z,101571.45
2019-03-28T07:33:52.530Z,101579.00
2019-03-28T07:38:56.081Z,101560.33
2019-03-28T07:43:59.710Z,101567.47
2019-03-28T07:49:03.266Z,101564.78
2019-03-28T07:54:06.841Z,101567.84
2019-03-28T07:59:10.464Z,101578.00
2019-03-28T08:04:14.080Z,101561.64
2019-03-28T08:09:17.858Z,101561.64
2019-03-28T08:14:21.459Z,101570.06
2019-03-28T08:19:26.069Z,101571.89
2019-03-28T08:24:29.680Z,101578.59
2019-03-28T08:29:33.264Z,101574.13
2019-03-28T08:34:36.927Z,101583.89
2019-03-28T08:39:40.581Z,101587.42
2019-03-28T08:44:44.161Z,101591.80
2019-03-28T08:49:47.779Z,101597.44
2019-03-28T08:54:52.018Z,101610.22
2019-03-28T08:59:55.640Z,101608.87
2019-03-28T09:04:59.273Z,101629.27
2019-03-28T09:10:02.871Z,101638.67
2019-03-28T09:15:07.104Z,101638.36
2019-03-28T09:20:10.724Z,101634.05
2019-03-28T09:25:14.352Z,101633.23
2019-03-28T09:30:21.002Z,101628.83
2019-03-28T09:35:30.977Z,101627.05
2019-03-28T09:40:34.513Z,101623.05
2019-03-28T09:45:38.091Z,101637.28
2019-03-28T09:50:41.661Z,101645.73
2019-03-28T09:55:45.209Z,101647.91
2019-03-28T10:01:01.963Z,101643.02
2019-03-28T10:05:54.073Z,101643.44
2019-03-28T10:10:57.620Z,101642.55
2019-03-28T10:16:01.177Z,101642.95
2019-03-28T10:21:04.873Z,101654.50
2019-03-28T10:26:08.488Z,101641.57
2019-03-28T10:31:16.596Z,101646.89
2019-03-28T10:36:17.340Z,101644.66
2019-03-28T10:41:20.921Z,101640.58
2019-03-28T10:46:24.513Z,101641.09
2019-03-28T10:51:28.065Z,101647.23
2019-03-28T10:56:31.665Z,101641.00
2019-03-28T11:01:48.007Z,101644.55
2019-03-28T11:06:40.520Z,101645.02
2019-03-28T11:11:44.089Z,101654.49
2019-03-28T11:16:48.389Z,101649.23
2019-03-28T11:21:52.223Z,101648.39
2019-03-28T11:26:55.774Z,101631.48
2019-03-28T11:31:59.327Z,101647.48
2019-03-28T11:37:02.877Z,101654.61
2019-03-28T11:42:06.424Z,101642.61
2019-03-28T11:47:10.080Z,101648.39
2019-03-28T11:52:13.645Z,101646.60
2019-03-28T11:57:17.629Z,101645.23
2019-03-28T12:02:21.195Z,101638.13
2019-03-28T12:07:24.801Z,101635.44
2019-03-28T12:12:28.428Z,101630.97
2019-03-28T12:17:32.050Z,101636.72
2019-03-28T12:22:35.783Z,101635.81
2019-03-28T12:27:39.394Z,101641.58
2019-03-28T12:32:43.007Z,101637.97
2019-03-28T12:37:46.627Z,101637.02
2019-03-28T12:42:50.357Z,101644.55
2019-03-28T12:47:53.933Z,101644.53
2019-03-28T12:52:58.393Z,101644.03
2019-03-28T12:58:02.238Z,101646.66
2019-03-28T13:03:05.859Z,101658.58
2019-03-28T13:08:09.479Z,101659.88
2019-03-28T13:13:12.999Z,101658.17
2019-03-28T13:18:16.607Z,101651.69
2019-03-28T13:23:20.175Z,101654.91
2019-03-28T13:28:23.749Z,101647.45
2019-03-28T13:33:27.348Z,101651.04
2019-03-28T13:38:30.990Z,101660.34
2019-03-28T13:43:34.615Z,101666.59
2019-03-28T13:48:38.219Z,101674.63
2019-03-28T13:53:41.808Z,101671.96
2019-03-28T13:58:45.463Z,101667.94
2019-03-28T14:03:49.079Z,101666.13
2019-03-28T14:08:52.700Z,101665.24
2019-03-28T14:13:56.317Z,101663.88
2019-03-28T14:18:59.935Z,101662.54
2019-03-28T14:24:03.563Z,101669.59
2019-03-28T14:29:07.244Z,101667.37
2019-03-28T14:34:10.901Z,101670.89
2019-03-28T14:39:14.519Z,101680.56
2019-03-28T14:44:18.137Z,101676.98
2019-03-28T14:49:21.785Z,101687.96
2019-03-28T14:54:25.373Z,101685.30
2019-03-28T14:59:32.705Z,101684.38
2019-03-28T15:04:34.356Z,101682.13
2019-03-28T15:09:37.974Z,101690.97
2019-03-28T15:14:41.600Z,101694.52
2019-03-28T15:19:45.226Z,101690.48
2019-03-28T15:24:48.797Z,101699.05
2019-03-28T15:29:52.449Z,101699.05
2019-03-28T15:34:56.032Z,101698.64
2019-03-28T15:39:59.610Z,101700.03
2019-03-28T15:45:03.771Z,101706.41
2019-03-28T15:50:07.366Z,101700.72
2019-03-28T15:55:10.917Z,101702.14
2019-03-28T16:00:14.492Z,101709.77
2019-03-28T16:05:18.040Z,101716.42
2019-03-28T16:10:21.640Z,101721.75
2019-03-28T16:15:25.164Z,101725.25
2019-03-28T16:20:28.746Z,101736.77
2019-03-28T16:25:32.282Z,101736.30
2019-03-28T16:30:37.312Z,101738.06
2019-03-28T16:35:40.860Z,101733.55
2019-03-28T16:40:44.465Z,101737.97
2019-03-28T16:45:48.009Z,101741.00
2019-03-28T16:50:51.622Z,101749.38
2019-03-28T16:55:55.162Z,101751.05
2019-03-28T17:00:58.854Z,101757.67
2019-03-28T17:06:02.473Z,101758.00
2019-03-28T17:11:06.065Z,101760.62
2019-03-28T17:16:09.627Z,101757.92
2019-03-28T17:21:13.820Z,101768.64
2019-03-28T17:26:17.668Z,101770.72
2019-03-28T17:31:21.195Z,101761.50
2019-03-28T17:36:26.827Z,101768.30
2019-03-28T17:41:30.148Z,101764.89
2019-03-28T17:46:33.963Z,101770.27
2019-03-28T17:51:40.406Z,101784.48
2019-03-28T17:56:42.948Z,101790.72
2019-03-28T18:01:46.992Z,101801.39
2019-03-28T18:06:51.033Z,101801.41
2019-03-28T18:11:54.659Z,101805.84
2019-03-28T18:16:58.245Z,101806.52
2019-03-28T18:22:03.630Z,101810.42
2019-03-28T18:27:07.229Z,101814.63
2019-03-28T18:32:10.844Z,101821.62
2019-03-28T18:37:14.466Z,101821.84
2019-03-28T18:42:18.470Z,101827.36
2019-03-28T18:47:22.134Z,101832.92
2019-03-28T18:52:25.952Z,101840.72
2019-03-28T18:57:33.577Z,101849.52
2019-03-28T19:02:37.685Z,101855.95
2019-03-28T19:07:41.558Z,101852.77
2019-03-28T19:12:45.478Z,101855.33
2019-03-28T19:17:49.494Z,101855.33
2019-03-28T19:22:53.503Z,101864.15
2019-03-28T19:27:58.210Z,101857.34
2019-03-28T19:33:01.971Z,101871.14
2019-03-28T19:38:09.223Z,101864.80
2019-03-28T19:43:20.597Z,101866.28
2019-03-28T19:48:21.395Z,101861.09
2019-03-28T19:53:24.982Z,101866.98
2019-03-28T19:58:28.554Z,101869.39
2019-03-28T20:03:32.073Z,101867.17
2019-03-28T20:08:35.676Z,101863.95
2019-03-28T20:13:39.203Z,101864.28
2019-03-28T20:18:43.254Z,101875.69
2019-03-28T20:23:46.915Z,101880.34
2019-03-28T20:28:50.525Z,101887.70
2019-03-28T20:33:54.077Z,101881.45
2019-03-28T20:39:03.726Z,101882.41
2019-03-28T20:44:02.931Z,101885.92
2019-03-28T20:49:06.484Z,101886.95
2019-03-28T20:54:10.105Z,101893.89
2019-03-28T20:59:14.346Z,101896.33
2019-03-28T21:04:30.753Z,101890.75
2019-03-28T21:09:23.283Z,101898.16
2019-03-28T21:14:27.966Z,101900.58
2019-03-28T21:19:31.584Z,101906.75
2019-03-28T21:24:35.120Z,101903.92
2019-03-28T21:29:48.366Z,101911.55
2019-03-28T21:34:44.139Z,101917.08
2019-03-28T21:39:47.733Z,101921.06
2019-03-28T21:44:51.285Z,101911.25
2019-03-28T21:49:54.848Z,101915.11
2019-03-28T21:54:58.435Z,101917.73
2019-03-28T22:00:01.971Z,101915.70
2019-03-28T22:05:06.437Z,101916.75
2019-03-28T22:10:09.983Z,101920.41
2019-03-28T22:15:14.005Z,101920.48
2019-03-28T22:20:17.982Z,101921.34
2019-03-28T22:25:21.796Z,101923.16
2019-03-28T22:30:25.338Z,101911.48
2019-03-28T22:35:28.924Z,101921.14
2019-03-28T22:40:32.535Z,101930.95
2019-03-28T22:45:36.101Z,101923.42
2019-03-28T22:50:39.685Z,101929.17
2019-03-28T22:55:43.266Z,101924.02
2019-03-28T23:00:50.974Z,101924.94
2019-03-28T23:05:54.538Z,101919.55
2019-03-28T23:10:58.117Z,101934.50
2019-03-28T23:16:02.344Z,101928.71
2019-03-28T23:21:06.634Z,101928.98
2019-03-28T23:26:10.194Z,101932.61
2019-03-28T23:31:13.737Z,101932.75
2019-03-28T23:36:17.355Z,101935.52
2019-03-28T23:41:21.207Z,101939.33
2019-03-28T23:46:25.531Z,101936.16
2019-03-28T23:51:29.199Z,101938.09
2019-03-28T23:56:32.761Z,101944.27
